sensor_id;sensor_type;location;lat;lon;timestamp;temperature;humidity
19878;DHT22;10101;52.204;9.910;2023-07-20T00:01:48;15.00;99.90
19878;DHT22;10101;52.204;9.910;2023-07-20T00:04:14;15.00;99.90
19878;DHT22;10101;52.204;9.910;2023-07-20T00:06:41;15.00;99.90
19878;DHT22;10101;52.204;9.910;2023-07-20T00:09:08;15.00;99.90
19878;DHT22;10101;52.204;9.910;2023-07-20T00:11:36;14.90;99.90
19878;DHT22;10101;52.204;9.910;2023-07-20T00:14:05;15.00;99.90
19878;DHT22;10101;52.204;9.910;2023-07-20T00:16:31;14.90;99.90
19878;DHT22;10101;52.204;9.910;2023-07-20T00:18:58;14.90;99.90
19878;DHT22;10101;52.204;9.910;2023-07-20T00:21:25;14.90;1.00
19878;DHT22;10101;52.204;9.910;2023-07-20T00:23:52;15.00;1.00
19878;DHT22;10101;52.204;9.910;2023-07-20T00:26:18;15.00;1.00
19878;DHT22;10101;52.204;9.910;2023-07-20T00:28:45;14.90;1.00
19878;DHT22;10101;52.204;9.910;2023-07-20T00:31:13;14.90;1.00
19878;DHT22;10101;52.204;9.910;2023-07-20T00:33:40;15.00;1.00
19878;DHT22;10101;52.204;9.910;2023-07-20T00:36:06;15.00;1.00
19878;DHT22;10101;52.204;9.910;2023-07-20T00:38:33;14.90;1.00
19878;DHT22;10101;52.204;9.910;2023-07-20T00:41:00;14.80;1.00
19878;DHT22;10101;52.204;9.910;2023-07-20T00:43:26;14.70;1.00
19878;DHT22;10101;52.204;9.910;2023-07-20T00:45:53;14.70;1.00
19878;DHT22;10101;52.204;9.910;2023-07-20T00:48:21;14.60;1.00
19878;DHT22;10101;52.204;9.910;2023-07-20T00:50:48;14.50;1.00
19878;DHT22;10101;52.204;9.910;2023-07-20T00:53:16;14.60;1.00
19878;DHT22;10101;52.204;9.910;2023-07-20T00:55:42;14.60;1.00
19878;DHT22;10101;52.204;9.910;2023-07-20T00:58:09;14.50;1.00
19878;DHT22;10101;52.204;9.910;2023-07-20T01:00:36;14.50;1.00
19878;DHT22;10101;52.204;9.910;2023-07-20T01:03:03;14.40;1.00
19878;DHT22;10101;52.204;9.910;2023-07-20T01:05:38;14.50;1.00
19878;DHT22;10101;52.204;9.910;2023-07-20T01:08:11;14.60;1.00
19878;DHT22;10101;52.204;9.910;2023-07-20T01:10:43;14.50;1.00
19878;DHT22;10101;52.204;9.910;2023-07-20T01:13:12;14.50;1.00
19878;DHT22;10101;52.204;9.910;2023-07-20T01:15:41;14.50;1.00
19878;DHT22;10101;52.204;9.910;2023-07-20T01:18:07;14.40;1.00
19878;DHT22;10101;52.204;9.910;2023-07-20T01:20:38;14.30;1.00
19878;DHT22;10101;52.204;9.910;2023-07-20T01:23:22;14.30;1.00
19878;DHT22;10101;52.204;9.910;2023-07-20T01:26:07;14.20;1.00
19878;DHT22;10101;52.204;9.910;2023-07-20T01:28:47;14.30;1.00
19878;DHT22;10101;52.204;9.910;2023-07-20T01:31:20;14.20;1.00
19878;DHT22;10101;52.204;9.910;2023-07-20T01:33:48;14.20;1.00
19878;DHT22;10101;52.204;9.910;2023-07-20T01:36:17;14.10;1.00
19878;DHT22;10101;52.204;9.910;2023-07-20T01:38:45;14.20;1.00
19878;DHT22;10101;52.204;9.910;2023-07-20T01:41:11;14.20;1.00
19878;DHT22;10101;52.204;9.910;2023-07-20T01:43:38;14.20;1.00
19878;DHT22;10101;52.204;9.910;2023-07-20T01:46:05;14.10;2.90
19878;DHT22;10101;52.204;9.910;2023-07-20T01:48:33;14.00;22.10
19878;DHT22;10101;52.204;9.910;2023-07-20T01:51:00;14.00;54.80
19878;DHT22;10101;52.204;9.910;2023-07-20T01:53:26;14.00;99.90
19878;DHT22;10101;52.204;9.910;2023-07-20T01:55:53;14.10;99.90
19878;DHT22;10101;52.204;9.910;2023-07-20T01:58:20;14.10;99.90
19878;DHT22;10101;52.204;9.910;2023-07-20T02:00:47;14.00;99.90
19878;DHT22;10101;52.204;9.910;2023-07-20T02:03:14;14.10;99.90
19878;DHT22;10101;52.204;9.910;2023-07-20T02:05:43;14.00;95.10
19878;DHT22;10101;52.204;9.910;2023-07-20T02:08:10;14.00;83.60
19878;DHT22;10101;52.204;9.910;2023-07-20T02:10:37;14.00;85.00
19878;DHT22;10101;52.204;9.910;2023-07-20T02:13:04;14.00;87.70
19878;DHT22;10101;52.204;9.910;2023-07-20T02:15:30;13.90;76.10
19878;DHT22;10101;52.204;9.910;2023-07-20T02:17:57;13.90;91.40
19878;DHT22;10101;52.204;9.910;2023-07-20T02:20:24;13.90;81.30
19878;DHT22;10101;52.204;9.910;2023-07-20T02:22:52;13.90;89.00
19878;DHT22;10101;52.204;9.910;2023-07-20T02:25:19;13.80;89.50
19878;DHT22;10101;52.204;9.910;2023-07-20T02:27:45;13.80;82.30
19878;DHT22;10101;52.204;9.910;2023-07-20T02:30:12;13.90;91.10
19878;DHT22;10101;52.204;9.910;2023-07-20T02:32:39;13.90;92.70
19878;DHT22;10101;52.204;9.910;2023-07-20T02:35:06;14.00;58.30
19878;DHT22;10101;52.204;9.910;2023-07-20T02:37:33;14.00;35.40
19878;DHT22;10101;52.204;9.910;2023-07-20T02:40:01;14.00;11.50
19878;DHT22;10101;52.204;9.910;2023-07-20T02:42:29;14.00;1.00
19878;DHT22;10101;52.204;9.910;2023-07-20T02:44:56;14.10;1.00
19878;DHT22;10101;52.204;9.910;2023-07-20T02:47:22;14.00;1.00
19878;DHT22;10101;52.204;9.910;2023-07-20T02:49:49;14.00;1.00
19878;DHT22;10101;52.204;9.910;2023-07-20T02:52:16;14.10;1.00
19878;DHT22;10101;52.204;9.910;2023-07-20T02:54:45;14.10;1.00
19878;DHT22;10101;52.204;9.910;2023-07-20T02:57:13;14.00;1.00
19878;DHT22;10101;52.204;9.910;2023-07-20T02:59:39;14.10;1.00
19878;DHT22;10101;52.204;9.910;2023-07-20T03:02:06;14.10;1.00
19878;DHT22;10101;52.204;9.910;2023-07-20T03:04:35;14.10;1.00
19878;DHT22;10101;52.204;9.910;2023-07-20T03:07:02;14.20;1.00
19878;DHT22;10101;52.204;9.910;2023-07-20T03:09:29;14.20;1.00
19878;DHT22;10101;52.204;9.910;2023-07-20T03:11:56;14.20;1.00
19878;DHT22;10101;52.204;9.910;2023-07-20T03:14:24;14.20;1.00
19878;DHT22;10101;52.204;9.910;2023-07-20T03:16:51;14.20;1.00
19878;DHT22;10101;52.204;9.910;2023-07-20T03:19:18;14.30;1.00
19878;DHT22;10101;52.204;9.910;2023-07-20T03:21:44;14.30;1.00
19878;DHT22;10101;52.204;9.910;2023-07-20T03:24:11;14.30;1.00
19878;DHT22;10101;52.204;9.910;2023-07-20T03:26:38;14.30;1.00
19878;DHT22;10101;52.204;9.910;2023-07-20T03:29:04;14.40;1.00
19878;DHT22;10101;52.204;9.910;2023-07-20T03:31:33;14.40;1.00
19878;DHT22;10101;52.204;9.910;2023-07-20T03:34:00;14.40;1.00
19878;DHT22;10101;52.204;9.910;2023-07-20T03:36:26;14.40;1.00
19878;DHT22;10101;52.204;9.910;2023-07-20T03:38:53;14.40;1.00
19878;DHT22;10101;52.204;9.910;2023-07-20T03:41:20;14.40;1.00
19878;DHT22;10101;52.204;9.910;2023-07-20T03:43:47;14.50;1.00
19878;DHT22;10101;52.204;9.910;2023-07-20T03:46:14;14.40;1.00
19878;DHT22;10101;52.204;9.910;2023-07-20T03:48:42;14.40;1.00
19878;DHT22;10101;52.204;9.910;2023-07-20T03:51:09;14.50;1.00
19878;DHT22;10101;52.204;9.910;2023-07-20T03:53:35;14.50;1.00
19878;DHT22;10101;52.204;9.910;2023-07-20T03:56:02;14.50;1.00
19878;DHT22;10101;52.204;9.910;2023-07-20T03:58:29;14.60;1.00
19878;DHT22;10101;52.204;9.910;2023-07-20T04:00:57;14.60;1.00
19878;DHT22;10101;52.204;9.910;2023-07-20T04:03:24;14.60;1.00
19878;DHT22;10101;52.204;9.910;2023-07-20T04:05:53;14.60;1.00
19878;DHT22;10101;52.204;9.910;2023-07-20T04:08:20;14.50;1.00
19878;DHT22;10101;52.204;9.910;2023-07-20T04:10:47;14.60;1.00
19878;DHT22;10101;52.204;9.910;2023-07-20T04:13:13;14.60;1.00
19878;DHT22;10101;52.204;9.910;2023-07-20T04:15:41;14.70;1.00
19878;DHT22;10101;52.204;9.910;2023-07-20T04:18:08;14.70;1.00
19878;DHT22;10101;52.204;9.910;2023-07-20T04:20:35;14.70;1.00
19878;DHT22;10101;52.204;9.910;2023-07-20T04:23:03;14.70;1.00
19878;DHT22;10101;52.204;9.910;2023-07-20T04:25:30;14.60;1.00
19878;DHT22;10101;52.204;9.910;2023-07-20T04:27:59;14.70;1.00
19878;DHT22;10101;52.204;9.910;2023-07-20T04:30:25;14.60;1.00
19878;DHT22;10101;52.204;9.910;2023-07-20T04:32:52;14.60;1.00
19878;DHT22;10101;52.204;9.910;2023-07-20T04:35:46;14.60;1.00
19878;DHT22;10101;52.204;9.910;2023-07-20T04:38:15;14.60;1.00
19878;DHT22;10101;52.204;9.910;2023-07-20T04:40:43;14.60;1.00
19878;DHT22;10101;52.204;9.910;2023-07-20T04:43:10;14.60;1.00
19878;DHT22;10101;52.204;9.910;2023-07-20T04:45:37;14.60;1.00
19878;DHT22;10101;52.204;9.910;2023-07-20T04:48:06;14.70;38.70
19878;DHT22;10101;52.204;9.910;2023-07-20T04:50:33;14.80;99.90
19878;DHT22;10101;52.204;9.910;2023-07-20T04:53:00;14.70;99.90
19878;DHT22;10101;52.204;9.910;2023-07-20T04:55:28;14.70;1.00
19878;DHT22;10101;52.204;9.910;2023-07-20T04:57:55;14.70;1.00
19878;DHT22;10101;52.204;9.910;2023-07-20T05:00:22;14.60;1.00
19878;DHT22;10101;52.204;9.910;2023-07-20T05:02:49;14.60;1.00
19878;DHT22;10101;52.204;9.910;2023-07-20T05:05:16;14.70;99.90
19878;DHT22;10101;52.204;9.910;2023-07-20T05:07:42;14.50;96.50
19878;DHT22;10101;52.204;9.910;2023-07-20T05:10:09;14.60;99.90
19878;DHT22;10101;52.204;9.910;2023-07-20T05:12:37;14.50;99.90
19878;DHT22;10101;52.204;9.910;2023-07-20T05:15:04;14.50;99.90
19878;DHT22;10101;52.204;9.910;2023-07-20T05:17:31;14.30;99.90
19878;DHT22;10101;52.204;9.910;2023-07-20T05:19:58;14.30;99.90
19878;DHT22;10101;52.204;9.910;2023-07-20T05:22:25;14.30;99.90
19878;DHT22;10101;52.204;9.910;2023-07-20T05:24:52;14.30;99.90
19878;DHT22;10101;52.204;9.910;2023-07-20T05:27:19;14.20;99.90
19878;DHT22;10101;52.204;9.910;2023-07-20T05:29:47;14.00;91.90
19878;DHT22;10101;52.204;9.910;2023-07-20T05:32:13;13.90;99.90
19878;DHT22;10101;52.204;9.910;2023-07-20T05:34:40;14.00;99.90
19878;DHT22;10101;52.204;9.910;2023-07-20T05:37:07;13.90;99.90
19878;DHT22;10101;52.204;9.910;2023-07-20T05:39:34;14.00;99.90
19878;DHT22;10101;52.204;9.910;2023-07-20T05:42:00;13.90;99.90
19878;DHT22;10101;52.204;9.910;2023-07-20T05:44:27;13.90;1.00
19878;DHT22;10101;52.204;9.910;2023-07-20T05:46:55;13.70;99.90
19878;DHT22;10101;52.204;9.910;2023-07-20T05:49:22;13.80;99.90
19878;DHT22;10101;52.204;9.910;2023-07-20T05:51:48;13.80;99.90
19878;DHT22;10101;52.204;9.910;2023-07-20T05:54:15;13.80;1.00
19878;DHT22;10101;52.204;9.910;2023-07-20T05:56:42;13.90;1.00
19878;DHT22;10101;52.204;9.910;2023-07-20T05:59:09;13.80;1.00
19878;DHT22;10101;52.204;9.910;2023-07-20T06:01:35;13.90;1.00
19878;DHT22;10101;52.204;9.910;2023-07-20T06:04:03;13.90;1.00
19878;DHT22;10101;52.204;9.910;2023-07-20T06:06:30;13.90;1.00
19878;DHT22;10101;52.204;9.910;2023-07-20T06:08:57;13.90;99.90
19878;DHT22;10101;52.204;9.910;2023-07-20T06:11:24;13.90;99.90
19878;DHT22;10101;52.204;9.910;2023-07-20T06:13:50;14.00;1.00
19878;DHT22;10101;52.204;9.910;2023-07-20T06:16:17;14.10;1.00
19878;DHT22;10101;52.204;9.910;2023-07-20T06:18:44;14.20;1.00
19878;DHT22;10101;52.204;9.910;2023-07-20T06:21:12;14.20;1.00
19878;DHT22;10101;52.204;9.910;2023-07-20T06:23:39;14.30;1.00
19878;DHT22;10101;52.204;9.910;2023-07-20T06:26:06;14.30;1.00
19878;DHT22;10101;52.204;9.910;2023-07-20T06:28:33;14.40;99.90
19878;DHT22;10101;52.204;9.910;2023-07-20T06:31:00;14.40;99.90
19878;DHT22;10101;52.204;9.910;2023-07-20T06:33:27;14.50;99.90
19878;DHT22;10101;52.204;9.910;2023-07-20T06:35:54;14.60;1.00
19878;DHT22;10101;52.204;9.910;2023-07-20T06:38:23;14.60;1.00
19878;DHT22;10101;52.204;9.910;2023-07-20T06:40:51;14.70;99.90
19878;DHT22;10101;52.204;9.910;2023-07-20T06:43:18;14.70;99.90
19878;DHT22;10101;52.204;9.910;2023-07-20T06:45:44;14.70;99.90
19878;DHT22;10101;52.204;9.910;2023-07-20T06:48:17;14.80;99.90
19878;DHT22;10101;52.204;9.910;2023-07-20T06:50:43;14.70;1.00
19878;DHT22;10101;52.204;9.910;2023-07-20T06:53:10;14.70;1.00
19878;DHT22;10101;52.204;9.910;2023-07-20T06:55:38;14.90;1.00
19878;DHT22;10101;52.204;9.910;2023-07-20T06:58:05;14.80;1.00
19878;DHT22;10101;52.204;9.910;2023-07-20T07:00:31;14.70;99.90
19878;DHT22;10101;52.204;9.910;2023-07-20T07:02:58;14.70;99.90
19878;DHT22;10101;52.204;9.910;2023-07-20T07:05:25;14.80;99.90
19878;DHT22;10101;52.204;9.910;2023-07-20T07:07:52;14.90;12.60
19878;DHT22;10101;52.204;9.910;2023-07-20T07:10:18;14.90;9.30
19878;DHT22;10101;52.204;9.910;2023-07-20T07:12:46;15.10;1.00
19878;DHT22;10101;52.204;9.910;2023-07-20T07:15:13;15.10;1.00
19878;DHT22;10101;52.204;9.910;2023-07-20T07:17:40;15.20;1.00
19878;DHT22;10101;52.204;9.910;2023-07-20T07:20:09;15.20;99.90
19878;DHT22;10101;52.204;9.910;2023-07-20T07:22:36;15.20;99.90
19878;DHT22;10101;52.204;9.910;2023-07-20T07:25:03;15.20;99.90
19878;DHT22;10101;52.204;9.910;2023-07-20T07:27:30;15.10;31.90
19878;DHT22;10101;52.204;9.910;2023-07-20T07:29:58;15.10;1.00
19878;DHT22;10101;52.204;9.910;2023-07-20T07:32:24;15.10;1.00
19878;DHT22;10101;52.204;9.910;2023-07-20T07:34:51;15.30;1.00
19878;DHT22;10101;52.204;9.910;2023-07-20T07:37:19;15.70;1.00
19878;DHT22;10101;52.204;9.910;2023-07-20T07:39:46;15.80;1.00
19878;DHT22;10101;52.204;9.910;2023-07-20T07:42:13;15.70;99.90
19878;DHT22;10101;52.204;9.910;2023-07-20T07:44:40;16.00;99.90
19878;DHT22;10101;52.204;9.910;2023-07-20T07:47:08;16.40;99.90
19878;DHT22;10101;52.204;9.910;2023-07-20T07:49:34;16.40;1.00
19878;DHT22;10101;52.204;9.910;2023-07-20T07:52:01;16.10;1.00
19878;DHT22;10101;52.204;9.910;2023-07-20T07:54:28;16.10;1.00
19878;DHT22;10101;52.204;9.910;2023-07-20T07:56:55;16.20;1.00
19878;DHT22;10101;52.204;9.910;2023-07-20T07:59:22;16.10;1.00
19878;DHT22;10101;52.204;9.910;2023-07-20T08:01:49;16.20;99.90
19878;DHT22;10101;52.204;9.910;2023-07-20T08:04:17;16.30;99.90
19878;DHT22;10101;52.204;9.910;2023-07-20T08:06:44;16.40;99.90
19878;DHT22;10101;52.204;9.910;2023-07-20T08:09:11;16.70;99.90
19878;DHT22;10101;52.204;9.910;2023-07-20T08:11:39;16.80;99.90
19878;DHT22;10101;52.204;9.910;2023-07-20T08:14:05;17.00;99.90
19878;DHT22;10101;52.204;9.910;2023-07-20T08:16:33;17.50;99.90
19878;DHT22;10101;52.204;9.910;2023-07-20T08:18:59;17.40;99.90
19878;DHT22;10101;52.204;9.910;2023-07-20T08:21:28;17.20;95.40
19878;DHT22;10101;52.204;9.910;2023-07-20T08:23:55;17.20;61.20
19878;DHT22;10101;52.204;9.910;2023-07-20T08:26:23;17.40;27.80
19878;DHT22;10101;52.204;9.910;2023-07-20T08:28:49;17.60;1.00
19878;DHT22;10101;52.204;9.910;2023-07-20T08:31:16;17.70;1.00
19878;DHT22;10101;52.204;9.910;2023-07-20T08:33:43;17.80;1.00
19878;DHT22;10101;52.204;9.910;2023-07-20T08:36:10;18.10;1.00
19878;DHT22;10101;52.204;9.910;2023-07-20T08:38:38;17.90;1.00
19878;DHT22;10101;52.204;9.910;2023-07-20T08:41:05;17.50;1.00
19878;DHT22;10101;52.204;9.910;2023-07-20T08:43:33;17.60;1.00
19878;DHT22;10101;52.204;9.910;2023-07-20T08:46:00;18.00;1.00
19878;DHT22;10101;52.204;9.910;2023-07-20T08:48:28;18.40;1.00
19878;DHT22;10101;52.204;9.910;2023-07-20T08:50:57;18.20;1.00
19878;DHT22;10101;52.204;9.910;2023-07-20T08:53:26;17.70;1.00
19878;DHT22;10101;52.204;9.910;2023-07-20T08:55:55;17.30;1.00
19878;DHT22;10101;52.204;9.910;2023-07-20T08:58:23;17.30;1.00
19878;DHT22;10101;52.204;9.910;2023-07-20T09:00:52;17.70;1.00
19878;DHT22;10101;52.204;9.910;2023-07-20T09:03:19;18.00;1.00
19878;DHT22;10101;52.204;9.910;2023-07-20T09:05:46;17.90;1.00
19878;DHT22;10101;52.204;9.910;2023-07-20T09:08:13;18.30;1.00
19878;DHT22;10101;52.204;9.910;2023-07-20T09:10:40;18.50;1.00
19878;DHT22;10101;52.204;9.910;2023-07-20T09:13:08;18.70;1.00
19878;DHT22;10101;52.204;9.910;2023-07-20T09:15:35;18.30;1.00
19878;DHT22;10101;52.204;9.910;2023-07-20T09:18:02;18.20;1.00
19878;DHT22;10101;52.204;9.910;2023-07-20T09:20:31;18.20;1.00
19878;DHT22;10101;52.204;9.910;2023-07-20T09:22:58;18.30;99.90
19878;DHT22;10101;52.204;9.910;2023-07-20T09:25:27;18.60;99.90
19878;DHT22;10101;52.204;9.910;2023-07-20T09:27:54;18.40;99.90
19878;DHT22;10101;52.204;9.910;2023-07-20T09:30:25;18.90;99.90
19878;DHT22;10101;52.204;9.910;2023-07-20T09:32:52;18.90;99.90
19878;DHT22;10101;52.204;9.910;2023-07-20T09:35:20;19.30;99.90
19878;DHT22;10101;52.204;9.910;2023-07-20T09:37:49;19.00;99.90
19878;DHT22;10101;52.204;9.910;2023-07-20T09:40:18;18.60;99.90
19878;DHT22;10101;52.204;9.910;2023-07-20T09:42:45;18.50;99.90
19878;DHT22;10101;52.204;9.910;2023-07-20T09:45:12;18.80;99.90
19878;DHT22;10101;52.204;9.910;2023-07-20T09:47:40;19.20;99.90
19878;DHT22;10101;52.204;9.910;2023-07-20T09:50:08;19.40;99.90
19878;DHT22;10101;52.204;9.910;2023-07-20T09:52:38;19.20;99.90
19878;DHT22;10101;52.204;9.910;2023-07-20T09:55:07;19.40;99.90
19878;DHT22;10101;52.204;9.910;2023-07-20T09:57:34;19.30;99.90
19878;DHT22;10101;52.204;9.910;2023-07-20T10:00:03;19.60;99.90
19878;DHT22;10101;52.204;9.910;2023-07-20T10:02:34;19.60;99.90
19878;DHT22;10101;52.204;9.910;2023-07-20T10:05:05;19.80;99.90
19878;DHT22;10101;52.204;9.910;2023-07-20T10:07:36;19.80;99.90
19878;DHT22;10101;52.204;9.910;2023-07-20T10:10:07;20.20;99.90
19878;DHT22;10101;52.204;9.910;2023-07-20T10:12:37;19.80;99.90
19878;DHT22;10101;52.204;9.910;2023-07-20T10:15:11;19.60;99.90
19878;DHT22;10101;52.204;9.910;2023-07-20T10:17:47;19.60;99.90
19878;DHT22;10101;52.204;9.910;2023-07-20T10:20:16;19.70;99.90
19878;DHT22;10101;52.204;9.910;2023-07-20T10:22:46;19.70;97.80
19878;DHT22;10101;52.204;9.910;2023-07-20T10:25:14;19.80;97.10
19878;DHT22;10101;52.204;9.910;2023-07-20T10:27:41;19.60;91.00
19878;DHT22;10101;52.204;9.910;2023-07-20T10:30:09;19.40;54.30
19878;DHT22;10101;52.204;9.910;2023-07-20T10:32:36;19.70;4.20
19878;DHT22;10101;52.204;9.910;2023-07-20T10:35:12;20.10;1.00
19878;DHT22;10101;52.204;9.910;2023-07-20T10:37:48;20.20;1.00
19878;DHT22;10101;52.204;9.910;2023-07-20T10:40:26;20.20;1.00
19878;DHT22;10101;52.204;9.910;2023-07-20T10:42:57;20.30;6.10
19878;DHT22;10101;52.204;9.910;2023-07-20T10:45:36;20.20;2.60
19878;DHT22;10101;52.204;9.910;2023-07-20T10:50:39;20.30;1.00
19878;DHT22;10101;52.204;9.910;2023-07-20T10:53:15;20.20;1.00
19878;DHT22;10101;52.204;9.910;2023-07-20T10:55:42;20.10;1.00
19878;DHT22;10101;52.204;9.910;2023-07-20T10:58:12;19.80;1.00
19878;DHT22;10101;52.204;9.910;2023-07-20T11:00:58;19.90;1.00
19878;DHT22;10101;52.204;9.910;2023-07-20T11:03:31;20.10;1.00
19878;DHT22;10101;52.204;9.910;2023-07-20T11:05:58;20.50;1.00
19878;DHT22;10101;52.204;9.910;2023-07-20T11:08:39;20.20;1.00
19878;DHT22;10101;52.204;9.910;2023-07-20T11:11:24;20.30;1.00
19878;DHT22;10101;52.204;9.910;2023-07-20T11:13:55;20.20;1.00
19878;DHT22;10101;52.204;9.910;2023-07-20T11:16:36;20.50;1.00
19878;DHT22;10101;52.204;9.910;2023-07-20T11:19:04;20.40;1.00
19878;DHT22;10101;52.204;9.910;2023-07-20T11:21:36;20.40;1.00
19878;DHT22;10101;52.204;9.910;2023-07-20T11:24:06;20.30;1.00
19878;DHT22;10101;52.204;9.910;2023-07-20T11:26:45;20.40;1.00
19878;DHT22;10101;52.204;9.910;2023-07-20T11:29:12;20.30;1.00
19878;DHT22;10101;52.204;9.910;2023-07-20T11:31:39;20.10;1.00
19878;DHT22;10101;52.204;9.910;2023-07-20T11:34:07;20.10;1.00
19878;DHT22;10101;52.204;9.910;2023-07-20T11:36:34;20.20;1.00
19878;DHT22;10101;52.204;9.910;2023-07-20T11:39:01;20.00;1.00
19878;DHT22;10101;52.204;9.910;2023-07-20T11:41:31;20.00;1.00
19878;DHT22;10101;52.204;9.910;2023-07-20T11:43:59;20.10;1.00
19878;DHT22;10101;52.204;9.910;2023-07-20T11:46:27;20.00;1.00
19878;DHT22;10101;52.204;9.910;2023-07-20T11:48:58;19.80;1.00
19878;DHT22;10101;52.204;9.910;2023-07-20T11:51:27;20.10;1.00
19878;DHT22;10101;52.204;9.910;2023-07-20T11:53:54;20.10;1.00
19878;DHT22;10101;52.204;9.910;2023-07-20T11:56:22;20.00;1.00
19878;DHT22;10101;52.204;9.910;2023-07-20T11:58:53;20.20;1.00
19878;DHT22;10101;52.204;9.910;2023-07-20T12:01:20;20.10;1.00
19878;DHT22;10101;52.204;9.910;2023-07-20T12:03:48;20.50;1.00
19878;DHT22;10101;52.204;9.910;2023-07-20T12:06:15;20.50;1.00
19878;DHT22;10101;52.204;9.910;2023-07-20T12:08:43;20.60;1.00
19878;DHT22;10101;52.204;9.910;2023-07-20T12:11:10;20.40;1.00
19878;DHT22;10101;52.204;9.910;2023-07-20T12:13:38;20.20;1.00
19878;DHT22;10101;52.204;9.910;2023-07-20T12:16:14;20.10;1.00
19878;DHT22;10101;52.204;9.910;2023-07-20T12:18:41;20.00;1.00
19878;DHT22;10101;52.204;9.910;2023-07-20T12:21:08;19.80;1.00
19878;DHT22;10101;52.204;9.910;2023-07-20T12:23:35;19.90;1.00
19878;DHT22;10101;52.204;9.910;2023-07-20T12:26:03;19.80;1.00
19878;DHT22;10101;52.204;9.910;2023-07-20T12:28:32;19.80;1.00
19878;DHT22;10101;52.204;9.910;2023-07-20T12:30:59;19.90;1.00
19878;DHT22;10101;52.204;9.910;2023-07-20T12:33:27;20.10;1.00
19878;DHT22;10101;52.204;9.910;2023-07-20T12:35:53;20.50;1.00
19878;DHT22;10101;52.204;9.910;2023-07-20T12:38:21;20.60;1.00
19878;DHT22;10101;52.204;9.910;2023-07-20T12:40:49;20.80;1.00
19878;DHT22;10101;52.204;9.910;2023-07-20T12:43:16;21.00;1.00
19878;DHT22;10101;52.204;9.910;2023-07-20T12:45:43;21.20;1.00
19878;DHT22;10101;52.204;9.910;2023-07-20T12:48:09;21.40;1.00
19878;DHT22;10101;52.204;9.910;2023-07-20T12:50:38;21.70;1.00
19878;DHT22;10101;52.204;9.910;2023-07-20T12:53:04;21.90;1.00
19878;DHT22;10101;52.204;9.910;2023-07-20T12:55:31;21.50;1.00
19878;DHT22;10101;52.204;9.910;2023-07-20T12:57:58;21.40;1.00
19878;DHT22;10101;52.204;9.910;2023-07-20T13:00:25;21.10;1.00
19878;DHT22;10101;52.204;9.910;2023-07-20T13:02:52;20.90;1.00
19878;DHT22;10101;52.204;9.910;2023-07-20T13:05:18;21.10;1.00
19878;DHT22;10101;52.204;9.910;2023-07-20T13:07:47;21.30;1.00
19878;DHT22;10101;52.204;9.910;2023-07-20T13:10:13;21.60;1.00
19878;DHT22;10101;52.204;9.910;2023-07-20T13:12:40;21.90;1.00
19878;DHT22;10101;52.204;9.910;2023-07-20T13:15:08;22.30;1.00
19878;DHT22;10101;52.204;9.910;2023-07-20T13:17:36;22.40;1.00
19878;DHT22;10101;52.204;9.910;2023-07-20T13:20:05;21.50;1.00
19878;DHT22;10101;52.204;9.910;2023-07-20T13:22:32;21.10;1.00
19878;DHT22;10101;52.204;9.910;2023-07-20T13:25:01;21.10;1.00
19878;DHT22;10101;52.204;9.910;2023-07-20T13:27:28;21.10;1.00
19878;DHT22;10101;52.204;9.910;2023-07-20T13:29:56;21.10;1.00
19878;DHT22;10101;52.204;9.910;2023-07-20T13:32:23;20.90;1.00
19878;DHT22;10101;52.204;9.910;2023-07-20T13:34:49;20.90;1.00
19878;DHT22;10101;52.204;9.910;2023-07-20T13:37:16;20.70;1.00
19878;DHT22;10101;52.204;9.910;2023-07-20T13:39:43;20.70;1.00
19878;DHT22;10101;52.204;9.910;2023-07-20T13:42:11;20.50;1.00
19878;DHT22;10101;52.204;9.910;2023-07-20T13:44:38;20.40;1.00
19878;DHT22;10101;52.204;9.910;2023-07-20T13:47:05;20.30;1.00
19878;DHT22;10101;52.204;9.910;2023-07-20T13:49:32;20.20;1.00
19878;DHT22;10101;52.204;9.910;2023-07-20T13:51:59;20.20;1.00
19878;DHT22;10101;52.204;9.910;2023-07-20T13:54:26;20.10;1.00
19878;DHT22;10101;52.204;9.910;2023-07-20T13:56:52;20.00;1.00
19878;DHT22;10101;52.204;9.910;2023-07-20T13:59:20;20.20;1.00
19878;DHT22;10101;52.204;9.910;2023-07-20T14:01:47;20.20;1.00
19878;DHT22;10101;52.204;9.910;2023-07-20T14:04:15;20.20;1.00
19878;DHT22;10101;52.204;9.910;2023-07-20T14:06:42;20.20;1.00
19878;DHT22;10101;52.204;9.910;2023-07-20T14:09:09;20.20;1.00
19878;DHT22;10101;52.204;9.910;2023-07-20T14:11:35;20.20;1.00
19878;DHT22;10101;52.204;9.910;2023-07-20T14:14:02;20.20;1.00
19878;DHT22;10101;52.204;9.910;2023-07-20T14:16:30;20.30;1.00
19878;DHT22;10101;52.204;9.910;2023-07-20T14:18:57;20.40;1.00
19878;DHT22;10101;52.204;9.910;2023-07-20T14:21:24;20.40;1.00
19878;DHT22;10101;52.204;9.910;2023-07-20T14:23:51;20.40;1.00
19878;DHT22;10101;52.204;9.910;2023-07-20T14:26:19;20.40;1.00
19878;DHT22;10101;52.204;9.910;2023-07-20T14:28:45;20.50;1.00
19878;DHT22;10101;52.204;9.910;2023-07-20T14:31:12;20.80;1.00
19878;DHT22;10101;52.204;9.910;2023-07-20T14:33:40;21.00;1.00
19878;DHT22;10101;52.204;9.910;2023-07-20T14:36:07;22.40;1.00
19878;DHT22;10101;52.204;9.910;2023-07-20T14:38:34;22.40;1.00
19878;DHT22;10101;52.204;9.910;2023-07-20T14:41:01;22.80;1.00
19878;DHT22;10101;52.204;9.910;2023-07-20T14:43:28;23.60;1.00
19878;DHT22;10101;52.204;9.910;2023-07-20T14:45:55;24.20;1.00
19878;DHT22;10101;52.204;9.910;2023-07-20T14:48:21;24.50;1.00
19878;DHT22;10101;52.204;9.910;2023-07-20T14:50:49;24.80;1.00
19878;DHT22;10101;52.204;9.910;2023-07-20T14:53:16;24.60;1.00
19878;DHT22;10101;52.204;9.910;2023-07-20T14:55:43;24.30;1.00
19878;DHT22;10101;52.204;9.910;2023-07-20T14:58:10;24.30;1.00
19878;DHT22;10101;52.204;9.910;2023-07-20T15:00:37;24.00;1.00
19878;DHT22;10101;52.204;9.910;2023-07-20T15:03:04;25.00;1.00
19878;DHT22;10101;52.204;9.910;2023-07-20T15:05:31;25.40;1.00
19878;DHT22;10101;52.204;9.910;2023-07-20T15:08:00;25.50;1.00
19878;DHT22;10101;52.204;9.910;2023-07-20T15:10:26;25.20;1.00
19878;DHT22;10101;52.204;9.910;2023-07-20T15:12:53;25.30;1.00
19878;DHT22;10101;52.204;9.910;2023-07-20T15:15:20;25.30;1.00
19878;DHT22;10101;52.204;9.910;2023-07-20T15:17:46;25.50;1.00
19878;DHT22;10101;52.204;9.910;2023-07-20T15:20:16;24.90;1.00
19878;DHT22;10101;52.204;9.910;2023-07-20T15:22:43;23.20;1.00
19878;DHT22;10101;52.204;9.910;2023-07-20T15:25:11;23.40;1.00
19878;DHT22;10101;52.204;9.910;2023-07-20T15:27:39;22.80;1.00
19878;DHT22;10101;52.204;9.910;2023-07-20T15:30:07;22.60;1.00
19878;DHT22;10101;52.204;9.910;2023-07-20T15:32:34;23.00;1.00
19878;DHT22;10101;52.204;9.910;2023-07-20T15:35:01;25.00;1.00
19878;DHT22;10101;52.204;9.910;2023-07-20T15:37:29;26.20;1.00
19878;DHT22;10101;52.204;9.910;2023-07-20T15:39:56;27.40;1.00
19878;DHT22;10101;52.204;9.910;2023-07-20T15:42:25;27.40;1.00
19878;DHT22;10101;52.204;9.910;2023-07-20T15:44:51;25.90;1.00
19878;DHT22;10101;52.204;9.910;2023-07-20T15:47:18;23.60;1.00
19878;DHT22;10101;52.204;9.910;2023-07-20T15:49:45;22.80;1.00